createdAt,value
2022-09-23T00:02:26.000Z,70.31
2022-09-23T00:04:59.491Z,70.27
2022-09-23T00:07:33.322Z,70.31
2022-09-23T00:10:08.788Z,69.78
2022-09-23T00:12:42.297Z,70.25
2022-09-23T00:15:16.330Z,70.41
2022-09-23T00:17:49.793Z,70.74
2022-09-23T00:20:23.297Z,70.75
2022-09-23T00:22:57.886Z,70.74
2022-09-23T00:25:32.757Z,70.93
2022-09-23T00:28:06.330Z,71.07
2022-09-23T00:30:42.437Z,71.17
2022-09-23T00:33:15.814Z,71.12
2022-09-23T00:35:49.942Z,71.41
2022-09-23T00:38:23.296Z,71.21
2022-09-23T00:40:58.506Z,71.24
2022-09-23T00:43:40.207Z,71.32
2022-09-23T00:46:16.835Z,71.42
2022-09-23T00:48:56.930Z,71.36
2022-09-23T00:51:35.502Z,71.42
2022-09-23T00:54:09.728Z,71.40
2022-09-23T00:56:44.770Z,71.57
2022-09-23T00:59:18.746Z,71.51
2022-09-23T01:01:55.738Z,71.18
2022-09-23T01:04:31.225Z,71.56
2022-09-23T01:07:04.996Z,71.58
2022-09-23T01:09:38.232Z,71.04
2022-09-23T01:12:22.867Z,71.29
2022-09-23T01:15:07.564Z,71.62
2022-09-23T01:17:49.374Z,71.67
2022-09-23T01:21:04.153Z,71.53
2022-09-23T01:24:09.721Z,71.48
2022-09-23T01:27:13.198Z,71.61
2022-09-23T01:30:21.419Z,71.44
2022-09-23T01:33:11.325Z,71.62
2022-09-23T01:35:56.969Z,71.71
2022-09-23T01:38:37.180Z,71.74
2022-09-23T01:41:24.878Z,71.82
2022-09-23T01:44:06.127Z,71.95
2022-09-23T01:46:45.713Z,71.96
2022-09-23T01:49:24.496Z,72.08
2022-09-23T01:52:05.524Z,72.28
2022-09-23T01:54:45.581Z,72.17
2022-09-23T01:57:25.750Z,72.35
2022-09-23T02:00:05.836Z,72.51
2022-09-23T02:02:50.459Z,72.37
2022-09-23T02:05:30.815Z,72.53
2022-09-23T02:08:10.438Z,72.46
2022-09-23T02:10:50.393Z,72.61
2022-09-23T02:13:28.903Z,72.60
2022-09-23T02:16:09.853Z,72.67
2022-09-23T02:18:47.568Z,72.56
2022-09-23T02:21:25.839Z,72.66
2022-09-23T02:24:05.606Z,72.65
2022-09-23T02:26:46.708Z,72.69
2022-09-23T02:29:22.696Z,72.76
2022-09-23T02:32:01.707Z,72.75
2022-09-23T02:34:46.895Z,72.79
2022-09-23T02:37:29.039Z,72.86
2022-09-23T02:40:13.149Z,72.87
2022-09-23T02:42:50.513Z,72.17
2022-09-23T02:45:24.204Z,72.38
2022-09-23T02:48:03.889Z,72.49
2022-09-23T02:50:39.424Z,72.60
2022-09-23T02:53:15.921Z,72.65
2022-09-23T02:55:49.901Z,72.74
2022-09-23T02:58:23.544Z,72.83
2022-09-23T03:01:06.287Z,72.66
2022-09-23T03:03:46.077Z,72.88
2022-09-23T03:06:38.707Z,72.90
2022-09-23T03:09:20.819Z,72.82
2022-09-23T03:12:06.776Z,72.92
2022-09-23T03:14:49.606Z,72.95
2022-09-23T03:17:31.469Z,72.97
2022-09-23T03:20:09.495Z,72.82
2022-09-23T03:22:48.054Z,72.68
2022-09-23T03:25:25.983Z,72.57
2022-09-23T03:28:02.020Z,72.63
2022-09-23T03:30:36.845Z,72.35
2022-09-23T03:33:15.657Z,72.35
2022-09-23T03:36:11.722Z,72.40
2022-09-23T03:38:51.189Z,72.23
2022-09-23T03:41:31.384Z,72.07
2022-09-23T03:44:05.140Z,72.22
2022-09-23T03:46:39.344Z,72.11
2022-09-23T03:49:18.777Z,72.33
2022-09-23T03:51:52.412Z,72.21
2022-09-23T03:54:28.104Z,72.36
2022-09-23T03:57:04.200Z,72.32
2022-09-23T03:59:37.639Z,72.18
2022-09-23T04:02:12.095Z,72.33
2022-09-23T04:04:45.787Z,72.16
2022-09-23T04:07:19.858Z,72.26
2022-09-23T04:09:53.598Z,72.23
2022-09-23T04:12:28.476Z,71.71
2022-09-23T04:15:01.876Z,71.90
2022-09-23T04:17:35.724Z,72.09
2022-09-23T04:20:09.153Z,71.51
2022-09-23T04:22:42.605Z,71.72
2022-09-23T04:25:16.143Z,71.81
2022-09-23T04:27:51.179Z,72.00
2022-09-23T04:30:24.601Z,72.11
2022-09-23T04:32:58.058Z,72.19
2022-09-23T04:35:31.464Z,72.30
2022-09-23T04:38:05.196Z,72.46
2022-09-23T04:40:38.663Z,72.58
2022-09-23T04:43:13.735Z,72.79
2022-09-23T04:45:47.340Z,72.84
2022-09-23T04:48:20.778Z,72.84
2022-09-23T04:50:54.459Z,72.83
2022-09-23T04:53:28.811Z,72.72
2022-09-23T04:56:03.645Z,72.78
2022-09-23T04:58:38.686Z,72.93
2022-09-23T05:01:14.290Z,73.14
2022-09-23T05:03:48.333Z,73.14
2022-09-23T05:06:22.692Z,73.18
2022-09-23T05:08:57.262Z,72.94
2022-09-23T05:11:32.641Z,73.24
2022-09-23T05:14:07.543Z,73.22
2022-09-23T05:16:41.344Z,73.30
2022-09-23T05:19:15.625Z,73.26
2022-09-23T05:21:49.025Z,73.03
2022-09-23T05:24:25.571Z,72.93
2022-09-23T05:26:59.007Z,72.79
2022-09-23T05:29:34.090Z,72.80
2022-09-23T05:32:08.177Z,72.98
2022-09-23T05:34:41.728Z,73.04
2022-09-23T05:37:15.246Z,73.18
2022-09-23T05:39:48.773Z,73.07
2022-09-23T05:42:22.338Z,72.96
2022-09-23T05:44:57.370Z,73.16
2022-09-23T05:47:30.966Z,72.98
2022-09-23T05:50:04.528Z,73.00
2022-09-23T05:52:37.997Z,72.76
2022-09-23T05:55:11.852Z,72.89
2022-09-23T05:57:45.025Z,72.39
2022-09-23T06:00:20.442Z,72.69
2022-09-23T06:02:54.099Z,72.80
2022-09-23T06:05:27.615Z,72.79
2022-09-23T06:08:01.146Z,72.65
2022-09-23T06:10:38.123Z,73.05
2022-09-23T06:13:11.836Z,72.93
2022-09-23T06:15:46.984Z,73.06
2022-09-23T06:18:20.467Z,73.05
2022-09-23T06:20:53.950Z,72.83
2022-09-23T06:23:27.465Z,72.88
2022-09-23T06:26:05.235Z,73.10
2022-09-23T06:28:40.546Z,73.04
2022-09-23T06:31:17.428Z,73.11
2022-09-23T06:33:54.762Z,73.05
2022-09-23T06:36:42.411Z,73.07
2022-09-23T06:39:17.860Z,73.02
2022-09-23T06:41:51.391Z,72.92
2022-09-23T06:44:24.896Z,73.01
2022-09-23T06:47:03.891Z,72.99
2022-09-23T06:49:37.537Z,72.93
2022-09-23T06:52:11.135Z,72.96
2022-09-23T06:54:44.667Z,72.85
2022-09-23T06:57:18.145Z,72.77
2022-09-23T06:59:51.774Z,72.52
2022-09-23T07:02:26.868Z,72.60
2022-09-23T07:05:00.467Z,72.66
2022-09-23T07:07:33.967Z,72.58
2022-09-23T07:10:08.789Z,72.34
2022-09-23T07:12:43.064Z,72.44
2022-09-23T07:15:16.987Z,72.43
2022-09-23T07:17:51.826Z,72.24
2022-09-23T07:20:25.292Z,72.17
2022-09-23T07:22:59.075Z,71.75
2022-09-23T07:25:34.511Z,70.94
2022-09-23T07:28:08.081Z,70.92
2022-09-23T07:30:55.338Z,70.29
2022-09-23T07:33:34.808Z,69.94
2022-09-23T07:36:10.629Z,69.62
2022-09-23T07:38:45.659Z,69.17
2022-09-23T07:41:20.357Z,68.68
2022-09-23T07:43:55.524Z,67.42
2022-09-23T07:46:31.259Z,66.86
2022-09-23T07:49:07.163Z,66.27
2022-09-23T07:51:43.143Z,66.19
2022-09-23T07:54:18.480Z,66.28
2022-09-23T07:56:52.061Z,65.87
2022-09-23T07:59:27.169Z,65.65
2022-09-23T08:02:00.914Z,65.08
2022-09-23T08:04:35.716Z,64.93
2022-09-23T08:07:09.494Z,64.70
2022-09-23T08:09:44.992Z,64.68
2022-09-23T08:12:19.758Z,63.76
2022-09-23T08:14:53.387Z,61.90
2022-09-23T08:17:27.112Z,61.20
2022-09-23T08:20:01.767Z,61.73
2022-09-23T08:22:35.348Z,60.18
2022-09-23T08:25:10.259Z,60.20
2022-09-23T08:27:43.753Z,59.19
2022-09-23T08:30:17.458Z,59.16
2022-09-23T08:32:51.499Z,59.58
2022-09-23T08:35:26.355Z,58.42
2022-09-23T08:37:59.899Z,57.87
2022-09-23T08:40:35.057Z,55.25
2022-09-23T08:43:09.549Z,51.71
2022-09-23T08:45:45.159Z,48.44
2022-09-23T08:48:27.330Z,46.88
2022-09-23T08:51:06.189Z,45.09
2022-09-23T08:53:40.539Z,43.80
2022-09-23T08:56:17.389Z,41.44
2022-09-23T08:59:01.464Z,40.00
2022-09-23T09:01:43.242Z,40.32
2022-09-23T09:04:20.282Z,39.34
2022-09-23T09:07:24.551Z,38.49
2022-09-23T09:09:59.762Z,36.96
2022-09-23T09:12:42.050Z,34.12
2022-09-23T09:15:17.853Z,31.38
2022-09-23T09:18:01.448Z,31.00
2022-09-23T09:20:50.110Z,30.84
2022-09-23T09:23:29.353Z,29.26
2022-09-23T09:26:04.166Z,27.93
2022-09-23T09:28:44.384Z,26.95
2022-09-23T09:31:25.565Z,25.51
2022-09-23T09:34:03.916Z,25.18
2022-09-23T09:36:43.571Z,25.28
2022-09-23T09:39:21.823Z,26.01
2022-09-23T09:41:59.758Z,26.68
2022-09-23T09:44:45.063Z,26.67
2022-09-23T09:47:29.827Z,26.00
2022-09-23T09:50:07.770Z,24.61
2022-09-23T09:52:43.296Z,22.85
2022-09-23T09:55:28.614Z,22.08
2022-09-23T09:58:06.048Z,20.17
2022-09-23T10:00:44.327Z,19.11
2022-09-23T10:03:38.782Z,18.05
2022-09-23T10:06:18.243Z,17.71
2022-09-23T10:09:13.937Z,17.92
2022-09-23T10:12:12.210Z,18.17
2022-09-23T10:14:46.517Z,18.11
2022-09-23T10:17:22.594Z,19.36
2022-09-23T10:20:00.480Z,20.83
2022-09-23T10:22:39.880Z,22.07
2022-09-23T10:25:20.823Z,23.30
2022-09-23T10:27:55.736Z,23.38
2022-09-23T10:30:29.876Z,22.83
2022-09-23T10:33:03.773Z,23.12
2022-09-23T10:35:37.551Z,22.82
2022-09-23T10:38:12.024Z,23.98
2022-09-23T10:41:16.902Z,23.96
2022-09-23T10:44:22.349Z,23.67
2022-09-23T10:47:07.478Z,23.94
2022-09-23T10:50:18.400Z,22.92
2022-09-23T10:53:18.417Z,21.21
2022-09-23T10:56:17.036Z,19.51
2022-09-23T10:59:43.648Z,17.66
2022-09-23T11:02:34.546Z,16.91
2022-09-23T11:05:32.961Z,16.50
2022-09-23T11:08:19.647Z,16.06
2022-09-23T11:11:08.961Z,14.50
2022-09-23T11:14:01.200Z,13.60
2022-09-23T11:16:51.079Z,12.44
2022-09-23T11:19:46.536Z,12.36
2022-09-23T11:22:38.106Z,12.02
2022-09-23T11:25:36.306Z,12.15
2022-09-23T11:28:34.978Z,12.32
2022-09-23T11:31:20.584Z,11.75
2022-09-23T11:34:09.948Z,12.77
2022-09-23T11:36:51.248Z,13.90
2022-09-23T11:39:34.009Z,15.39
2022-09-23T11:42:15.561Z,16.43
2022-09-23T11:44:58.208Z,18.34
2022-09-23T11:47:39.968Z,19.87
2022-09-23T11:50:21.079Z,21.71
2022-09-23T11:53:02.242Z,23.28
2022-09-23T11:55:54.082Z,24.18
2022-09-23T11:58:36.620Z,25.33
2022-09-23T12:01:15.964Z,25.59
2022-09-23T12:03:55.032Z,26.06
2022-09-23T12:06:38.274Z,26.58
2022-09-23T12:09:35.714Z,25.14
2022-09-23T12:12:26.854Z,22.69
2022-09-23T12:15:07.957Z,21.84
2022-09-23T12:18:18.381Z,20.12
2022-09-23T12:24:24.904Z,18.48
2022-09-23T12:27:06.247Z,18.61
2022-09-23T12:29:41.940Z,19.17
2022-09-23T12:32:19.390Z,19.76
2022-09-23T12:34:54.552Z,20.93
2022-09-23T12:37:33.544Z,21.87
2022-09-23T12:40:20.222Z,23.82
2022-09-23T12:42:53.856Z,25.20
2022-09-23T12:45:40.779Z,26.68
2022-09-23T12:48:44.450Z,27.95
2022-09-23T12:51:26.208Z,29.05
2022-09-23T12:54:23.819Z,30.49
2022-09-23T12:57:06.973Z,31.05
2022-09-23T12:59:58.830Z,31.61
2022-09-23T13:02:36.424Z,31.84
2022-09-23T13:05:39.961Z,32.24
2022-09-23T13:08:18.301Z,32.26
2022-09-23T13:10:58.635Z,31.29
2022-09-23T13:13:38.276Z,31.94
2022-09-23T13:16:14.552Z,32.18
2022-09-23T13:18:58.932Z,31.74
2022-09-23T13:22:01.652Z,31.49
2022-09-23T13:24:43.804Z,31.00
2022-09-23T13:27:24.096Z,31.71
2022-09-23T13:30:05.686Z,31.56
2022-09-23T13:32:46.231Z,31.26
2022-09-23T13:35:27.815Z,31.71
2022-09-23T13:38:12.209Z,32.81
2022-09-23T13:40:46.496Z,33.50
2022-09-23T13:43:24.616Z,33.27
2022-09-23T13:46:00.918Z,33.59
2022-09-23T13:48:34.583Z,34.15
2022-09-23T13:51:13.842Z,34.47
2022-09-23T13:53:53.517Z,35.00
2022-09-23T13:56:28.826Z,35.70
2022-09-23T13:59:21.769Z,35.11
2022-09-23T14:02:06.842Z,34.70
2022-09-23T14:04:40.482Z,35.48
2022-09-23T14:07:16.683Z,35.20
2022-09-23T14:09:53.321Z,34.69
2022-09-23T14:12:26.970Z,34.69
2022-09-23T14:15:00.515Z,35.08
2022-09-23T14:17:37.724Z,34.64
2022-09-23T14:20:16.073Z,34.81
2022-09-23T14:22:49.840Z,34.25
2022-09-23T14:25:23.372Z,34.22
2022-09-23T14:28:01.646Z,34.38
2022-09-23T14:30:36.386Z,34.42
2022-09-23T14:33:15.992Z,34.53
2022-09-23T14:35:52.664Z,34.25
2022-09-23T14:38:46.207Z,33.91
2022-09-23T14:41:25.873Z,33.59
2022-09-23T14:44:01.576Z,33.61
2022-09-23T14:46:38.246Z,34.02
2022-09-23T14:49:18.773Z,33.95
2022-09-23T14:51:58.461Z,34.32
2022-09-23T14:54:36.167Z,34.30
2022-09-23T14:57:33.701Z,34.65
2022-09-23T15:00:16.957Z,34.60
2022-09-23T15:03:00.194Z,35.04
2022-09-23T15:05:42.330Z,35.22
2022-09-23T15:08:20.302Z,35.14
2022-09-23T15:10:54.462Z,35.43
2022-09-23T15:13:31.400Z,35.56
2022-09-23T15:16:05.889Z,36.04
2022-09-23T15:18:46.165Z,36.16
2022-09-23T15:21:23.414Z,36.32
2022-09-23T15:23:58.732Z,36.46
2022-09-23T15:26:48.804Z,36.74
2022-09-23T15:29:23.099Z,36.73
2022-09-23T15:31:56.650Z,37.46
2022-09-23T15:34:31.081Z,36.80
2022-09-23T15:37:05.614Z,36.53
2022-09-23T15:39:39.051Z,37.70
2022-09-23T15:42:12.788Z,37.91
2022-09-23T15:44:46.281Z,38.14
2022-09-23T15:47:21.867Z,38.63
2022-09-23T15:49:57.989Z,39.45
2022-09-23T15:52:32.813Z,39.75
2022-09-23T15:55:22.757Z,39.88
2022-09-23T15:57:58.739Z,40.26
2022-09-23T16:00:32.239Z,40.69
2022-09-23T16:03:06.798Z,40.96
2022-09-23T16:05:41.378Z,41.36
2022-09-23T16:08:23.516Z,41.80
2022-09-23T16:10:58.052Z,41.88
2022-09-23T16:13:31.570Z,42.56
2022-09-23T16:16:06.227Z,43.05
2022-09-23T16:23:38.979Z,43.79
2022-09-23T16:26:17.811Z,44.42
2022-09-23T16:28:52.892Z,44.72
2022-09-23T16:31:29.807Z,45.20
2022-09-23T16:34:03.546Z,45.58
2022-09-23T16:36:39.388Z,44.41
2022-09-23T16:39:16.037Z,45.70
2022-09-23T16:41:50.051Z,46.09
2022-09-23T16:44:23.643Z,46.72
2022-09-23T16:46:57.851Z,46.90
2022-09-23T16:49:31.460Z,47.28
2022-09-23T16:52:05.533Z,47.55
2022-09-23T16:54:42.321Z,48.10
2022-09-23T16:57:16.014Z,47.95
2022-09-23T17:00:06.666Z,46.98
2022-09-23T17:02:57.643Z,48.32
2022-09-23T17:05:31.243Z,48.84
2022-09-23T17:08:07.958Z,49.08
2022-09-23T17:10:43.497Z,49.53
2022-09-23T17:13:17.754Z,49.85
2022-09-23T17:15:51.286Z,50.18
2022-09-23T17:18:25.041Z,50.44
2022-09-23T17:21:00.866Z,50.88
2022-09-23T17:23:35.774Z,51.14
2022-09-23T17:26:12.638Z,51.65
2022-09-23T17:28:46.153Z,51.66
2022-09-23T17:31:19.938Z,51.81
2022-09-23T17:33:54.495Z,52.09
2022-09-23T17:36:28.400Z,52.35
2022-09-23T17:39:02.187Z,52.59
2022-09-23T17:41:37.592Z,52.94
2022-09-23T17:44:11.743Z,53.12
2022-09-23T17:46:45.420Z,53.25
2022-09-23T17:49:19.163Z,53.50
2022-09-23T17:51:53.439Z,52.14
2022-09-23T17:54:27.294Z,53.10
2022-09-23T17:57:02.474Z,53.79
2022-09-23T17:59:39.139Z,53.98
2022-09-23T18:02:15.657Z,54.36
2022-09-23T18:04:49.884Z,54.54
2022-09-23T18:07:23.841Z,54.77
2022-09-23T18:09:57.837Z,54.86
2022-09-23T18:12:33.134Z,55.04
2022-09-23T18:15:07.577Z,55.15
2022-09-23T18:17:42.150Z,55.31
2022-09-23T18:20:16.445Z,55.43
2022-09-23T18:22:50.303Z,55.64
2022-09-23T18:25:38.797Z,55.89
2022-09-23T18:28:14.841Z,56.12
2022-09-23T18:30:54.706Z,55.96
2022-09-23T18:33:28.656Z,56.27
2022-09-23T18:36:02.632Z,56.47
2022-09-23T18:38:37.462Z,56.54
2022-09-23T18:41:11.255Z,56.68
2022-09-23T18:43:48.501Z,55.45
2022-09-23T18:46:24.097Z,56.36
2022-09-23T18:49:16.223Z,56.79
2022-09-23T18:51:52.517Z,56.96
2022-09-23T18:54:27.969Z,57.13
2022-09-23T18:57:02.255Z,57.37
2022-09-23T18:59:38.415Z,57.76
2022-09-23T19:02:12.925Z,57.88
2022-09-23T19:04:47.876Z,57.66
2022-09-23T19:07:22.222Z,58.04
2022-09-23T19:09:56.230Z,58.22
2022-09-23T19:12:30.381Z,58.37
2022-09-23T19:15:05.969Z,58.68
2022-09-23T19:17:39.655Z,58.73
2022-09-23T19:20:13.479Z,57.76
2022-09-23T19:22:48.988Z,58.19
2022-09-23T19:25:23.369Z,58.57
2022-09-23T19:27:57.412Z,58.76
2022-09-23T19:30:32.228Z,57.76
2022-09-23T19:33:06.639Z,58.57
2022-09-23T19:35:48.788Z,58.83
2022-09-23T19:38:22.734Z,58.96
2022-09-23T19:40:58.162Z,59.28
2022-09-23T19:43:32.007Z,59.23
2022-09-23T19:46:07.263Z,58.20
2022-09-23T19:48:41.698Z,58.92
2022-09-23T19:51:16.947Z,59.17
2022-09-23T19:53:51.546Z,59.36
2022-09-23T19:56:25.895Z,59.48
2022-09-23T19:59:00.575Z,59.53
2022-09-23T20:01:36.577Z,59.83
2022-09-23T20:04:11.626Z,59.85
2022-09-23T20:06:46.214Z,60.35
2022-09-23T20:09:20.124Z,60.17
2022-09-23T20:11:53.725Z,60.31
2022-09-23T20:14:27.375Z,60.15
2022-09-23T20:17:02.578Z,60.20
2022-09-23T20:19:36.717Z,60.47
2022-09-23T20:22:33.208Z,60.42
2022-09-23T20:25:13.281Z,60.36
2022-09-23T20:27:52.723Z,60.39
2022-09-23T20:30:26.234Z,60.31
2022-09-23T20:33:01.206Z,60.34
2022-09-23T20:35:34.752Z,60.42
2022-09-23T20:38:08.357Z,60.58
2022-09-23T20:40:42.038Z,60.61
2022-09-23T20:43:16.276Z,60.77
2022-09-23T20:45:51.716Z,60.79
2022-09-23T20:48:26.707Z,61.01
2022-09-23T20:51:03.356Z,61.01
2022-09-23T20:53:36.821Z,61.16
2022-09-23T20:56:10.624Z,61.23
2022-09-23T20:58:44.703Z,61.12
2022-09-23T21:01:18.372Z,61.18
2022-09-23T21:03:54.028Z,61.18
2022-09-23T21:06:27.839Z,61.28
2022-09-23T21:09:01.365Z,61.38
2022-09-23T21:11:35.067Z,61.29
2022-09-23T21:14:08.792Z,61.32
2022-09-23T21:16:42.181Z,60.34
2022-09-23T21:19:17.223Z,60.84
2022-09-23T21:21:50.750Z,60.96
2022-09-23T21:24:57.325Z,61.08
2022-09-23T21:27:17.950Z,60.98
2022-09-23T21:29:51.599Z,61.38
2022-09-23T21:32:25.197Z,61.56
2022-09-23T21:35:00.179Z,61.59
2022-09-23T21:37:33.907Z,61.75
2022-09-23T21:40:37.367Z,61.78
2022-09-23T21:43:10.903Z,61.73
2022-09-23T21:45:44.516Z,61.81
2022-09-23T21:48:18.077Z,61.84
2022-09-23T21:51:01.012Z,62.07
2022-09-23T21:53:36.471Z,62.15
2022-09-23T21:56:14.027Z,62.34
2022-09-23T21:58:51.363Z,62.29
2022-09-23T22:01:26.523Z,62.51
2022-09-23T22:04:05.308Z,62.51
2022-09-23T22:06:40.798Z,62.55
2022-09-23T22:09:16.308Z,62.57
2022-09-23T22:12:10.007Z,62.52
2022-09-23T22:14:43.588Z,62.55
2022-09-23T22:17:17.089Z,62.54
2022-09-23T22:19:51.424Z,62.77
2022-09-23T22:22:26.396Z,62.87
2022-09-23T22:25:00.044Z,63.11
2022-09-23T22:27:53.625Z,62.94
2022-09-23T22:30:44.722Z,62.97
2022-09-23T22:33:18.237Z,62.92
2022-09-23T22:35:52.254Z,63.04
2022-09-23T22:38:27.806Z,63.01
2022-09-23T22:41:01.400Z,63.10
2022-09-23T22:43:35.021Z,63.11
2022-09-23T22:46:09.509Z,63.02
2022-09-23T22:48:43.118Z,63.27
2022-09-23T22:51:16.585Z,63.29
2022-09-23T22:53:52.709Z,63.04
2022-09-23T22:56:26.253Z,63.08
2022-09-23T22:59:02.188Z,63.33
2022-09-23T23:01:36.699Z,63.27
2022-09-23T23:04:12.557Z,63.35
2022-09-23T23:06:46.209Z,63.42
2022-09-23T23:09:21.202Z,63.47
2022-09-23T23:11:54.806Z,63.64
2022-09-23T23:14:28.369Z,63.38
2022-09-23T23:17:01.859Z,63.28
2022-09-23T23:19:37.471Z,63.45
2022-09-23T23:22:11.030Z,63.32
2022-09-23T23:24:45.979Z,63.56
2022-09-23T23:27:19.608Z,63.65
2022-09-23T23:29:53.092Z,63.55
2022-09-23T23:32:26.639Z,63.59
2022-09-23T23:35:00.224Z,63.63
2022-09-23T23:37:33.757Z,63.83
2022-09-23T23:40:10.181Z,63.74
2022-09-23T23:42:43.673Z,63.73
2022-09-23T23:45:17.583Z,63.54
2022-09-23T23:47:51.150Z,63.71
2022-09-23T23:50:24.767Z,63.83
2022-09-23T23:52:59.698Z,63.96
2022-09-23T23:55:39.078Z,64.00
2022-09-23T23:58:12.601Z,63.88
